Time;durP1;ratioP1;P1;durP2;ratioP2;P2;SDS_P1;SDS_P2;PMS_P1;PMS_P2;Temp;Humidity;BMP_temperature;BMP_pressure;BME280_temperature;BME280_humidity;BME280_pressure;Samples;Min_cycle;Max_cycle;Signal;HPM_P1;HPM_P2
2023/01/21 05:01:31;;;;;;;11.13;5.07;;;1.20;99.90;;;;;;5435345;23;20265;-71
2023/01/21 05:03:58;;;;;;;6.97;6.50;;;1.20;99.90;;;;;;4970563;28;20212;-71
2023/01/21 05:06:25;;;;;;;7.60;6.47;;;1.20;99.90;;;;;;4971418;28;20259;-71
2023/01/21 05:08:52;;;;;;;9.75;6.95;;;1.20;99.90;;;;;;4969241;28;20228;-71
2023/01/21 05:11:19;;;;;;;4.72;4.32;;;1.20;99.90;;;;;;4968654;28;20227;-70
2023/01/21 05:13:46;;;;;;;10.23;5.20;;;1.20;99.90;;;;;;4970776;28;20220;-70
2023/01/21 05:16:13;;;;;;;6.13;5.53;;;1.10;99.90;;;;;;4972629;28;20211;-71
2023/01/21 05:18:42;;;;;;;7.10;4.57;;;1.10;99.90;;;;;;4970816;28;20235;-71
2023/01/21 05:21:08;;;;;;;6.45;5.25;;;1.20;99.90;;;;;;4972062;28;20689;-70
2023/01/21 05:23:35;;;;;;;9.52;8.30;;;1.20;99.90;;;;;;4970091;28;20220;-70
2023/01/21 05:26:02;;;;;;;5.25;2.60;;;1.20;99.90;;;;;;4970886;28;20216;-70
2023/01/21 05:28:29;;;;;;;6.93;4.25;;;1.20;99.90;;;;;;4970567;28;20231;-70
2023/01/21 05:31:00;;;;;;;4.35;3.25;;;1.10;99.90;;;;;;4971028;28;20235;-70
2023/01/21 05:33:30;;;;;;;16.52;4.07;;;1.10;99.90;;;;;;4963724;28;20203;-70
2023/01/21 05:35:58;;;;;;;4.53;4.20;;;1.10;99.90;;;;;;4971311;28;20210;-70
2023/01/21 05:38:25;;;;;;;7.15;6.57;;;1.10;99.90;;;;;;4966431;28;20204;-70
2023/01/21 05:40:56;;;;;;;4.25;4.05;;;1.10;99.90;;;;;;4968500;28;20337;-70
2023/01/21 05:43:23;;;;;;;4.30;4.20;;;1.10;99.90;;;;;;4967864;28;20211;-70
2023/01/21 05:45:50;;;;;;;5.53;5.32;;;1.10;99.90;;;;;;4965521;28;20220;-69
2023/01/21 05:48:17;;;;;;;5.93;2.97;;;1.10;99.90;;;;;;4968687;28;20242;-70
2023/01/21 05:50:44;;;;;;;6.60;4.47;;;1.00;99.90;;;;;;4970871;28;20227;-70
2023/01/21 05:53:12;;;;;;;7.22;4.30;;;1.00;99.90;;;;;;4969443;28;20204;-69
2023/01/21 05:55:39;;;;;;;6.13;5.55;;;1.00;99.90;;;;;;4969006;28;20211;-68
2023/01/21 05:58:06;;;;;;;5.47;3.97;;;1.00;99.90;;;;;;4983048;28;20292;-69
2023/01/21 06:00:33;;;;;;;8.75;4.88;;;1.00;99.90;;;;;;4988674;28;20235;-69
2023/01/21 06:03:00;;;;;;;11.50;4.78;;;1.00;99.90;;;;;;4987150;28;20211;-69
2023/01/21 06:05:27;;;;;;;3.75;3.40;;;1.00;99.90;;;;;;4988619;28;20231;-70
2023/01/21 06:07:54;;;;;;;7.28;6.38;;;1.00;99.90;;;;;;4985220;28;20262;-69
2023/01/21 06:10:22;;;;;;;13.85;5.80;;;1.00;99.90;;;;;;4969264;28;20231;-70
2023/01/21 06:12:51;;;;;;;4.72;4.00;;;1.00;99.90;;;;;;4968972;28;20227;-69
2023/01/21 06:15:18;;;;;;;3.45;3.33;;;1.00;99.90;;;;;;4967823;28;20275;-69
2023/01/21 06:17:45;;;;;;;8.23;4.25;;;1.00;99.90;;;;;;4970183;28;20836;-70
2023/01/21 06:20:12;;;;;;;5.35;2.25;;;1.00;99.90;;;;;;4969242;28;20211;-70
2023/01/21 06:22:39;;;;;;;5.07;3.35;;;1.00;99.90;;;;;;4970360;28;20214;-69
2023/01/21 06:25:06;;;;;;;6.30;5.60;;;1.00;99.90;;;;;;4969812;28;20208;-70
2023/01/21 06:27:36;;;;;;;8.70;3.95;;;1.00;99.90;;;;;;4969986;28;20222;-71
2023/01/21 06:30:03;;;;;;;18.15;3.78;;;1.00;99.90;;;;;;4966341;28;20239;-70
2023/01/21 06:32:30;;;;;;;5.88;5.25;;;1.00;99.90;;;;;;4968188;28;20282;-70
2023/01/21 06:34:57;;;;;;;6.18;4.00;;;1.10;99.90;;;;;;4970020;28;20231;-70
2023/01/21 06:37:23;;;;;;;4.65;3.67;;;1.10;99.90;;;;;;4968318;28;20344;-69
2023/01/21 06:39:50;;;;;;;6.47;4.30;;;1.10;99.90;;;;;;4968668;28;20638;-69
2023/01/21 06:42:17;;;;;;;6.40;5.43;;;1.10;99.90;;;;;;4969007;28;20612;-70
2023/01/21 06:44:45;;;;;;;25.73;7.60;;;1.10;99.90;;;;;;4965851;28;20287;-69
2023/01/21 06:47:12;;;;;;;18.17;6.53;;;1.10;99.90;;;;;;4968752;28;20705;-69
2023/01/21 06:49:39;;;;;;;13.02;5.70;;;1.10;99.90;;;;;;4970154;28;20331;-69
2023/01/21 06:52:06;;;;;;;10.73;6.30;;;1.10;99.90;;;;;;4969385;28;20224;-69
2023/01/21 06:54:33;;;;;;;6.60;4.82;;;1.10;99.90;;;;;;4969902;28;20216;-68
2023/01/21 06:56:59;;;;;;;8.00;4.07;;;1.10;99.90;;;;;;4969227;28;20228;-69
2023/01/21 06:59:26;;;;;;;10.80;6.82;;;1.10;99.90;;;;;;4968063;28;20206;-69
2023/01/21 07:01:57;;;;;;;5.20;3.38;;;1.10;99.90;;;;;;4965932;28;20709;-70
2023/01/21 07:04:24;;;;;;;6.25;4.13;;;1.10;99.90;;;;;;4967849;28;20291;-69
2023/01/21 07:06:51;;;;;;;4.82;1.77;;;1.10;99.90;;;;;;4969423;28;20219;-70
2023/01/21 07:09:18;;;;;;;5.22;4.78;;;1.10;99.90;;;;;;4968971;28;20227;-70
2023/01/21 07:11:45;;;;;;;8.73;4.28;;;1.10;99.90;;;;;;4967383;28;20233;-69
2023/01/21 07:14:11;;;;;;;7.57;5.95;;;1.10;99.90;;;;;;4967806;28;20212;-69
2023/01/21 07:16:38;;;;;;;3.00;2.63;;;1.20;99.90;;;;;;4974129;28;20216;-71
2023/01/21 07:19:06;;;;;;;9.27;5.22;;;1.20;99.90;;;;;;4971869;28;20208;-69
2023/01/21 07:21:33;;;;;;;5.35;4.80;;;1.10;99.90;;;;;;4973442;28;20224;-69
2023/01/21 07:24:00;;;;;;;9.60;7.55;;;1.10;99.90;;;;;;4974337;28;20204;-70
2023/01/21 07:26:26;;;;;;;3.80;2.92;;;1.10;99.90;;;;;;4970896;28;20236;-68
2023/01/21 07:28:53;;;;;;;5.07;1.67;;;1.20;99.90;;;;;;4972225;28;20235;-70
2023/01/21 07:31:20;;;;;;;5.88;4.05;;;1.10;99.90;;;;;;4972318;28;20231;-70
2023/01/21 07:33:47;;;;;;;4.45;3.42;;;1.10;99.90;;;;;;4972431;28;20583;-69
2023/01/21 07:36:15;;;;;;;6.97;4.07;;;1.10;99.90;;;;;;4970661;28;20213;-69
2023/01/21 07:38:41;;;;;;;8.85;8.00;;;1.20;99.90;;;;;;4972841;28;20284;-70
2023/01/21 07:41:08;;;;;;;3.50;1.95;;;1.10;99.90;;;;;;4970045;28;20240;-69
2023/01/21 07:43:35;;;;;;;3.65;1.05;;;1.20;99.90;;;;;;4971298;28;20231;-69
2023/01/21 07:46:01;;;;;;;13.65;4.43;;;1.20;99.90;;;;;;4973561;28;20205;-70
2023/01/21 07:48:28;;;;;;;7.72;3.63;;;1.20;99.90;;;;;;4979124;28;20293;-67
2023/01/21 07:50:57;;;;;;;5.13;4.05;;;1.30;99.90;;;;;;4963949;28;20246;-69
2023/01/21 07:53:25;;;;;;;6.38;4.10;;;1.30;99.90;;;;;;4966098;28;20288;-69
2023/01/21 07:55:52;;;;;;;8.00;4.50;;;1.20;99.90;;;;;;4970655;28;20231;-69
2023/01/21 07:58:19;;;;;;;4.13;2.72;;;1.20;99.90;;;;;;4972153;28;20215;-69
2023/01/21 08:00:45;;;;;;;4.90;4.50;;;1.20;99.90;;;;;;4972886;28;20254;-68
2023/01/21 08:03:12;;;;;;;6.15;5.13;;;1.20;99.90;;;;;;4972633;28;20222;-69
2023/01/21 08:05:39;;;;;;;10.25;3.47;;;1.20;99.90;;;;;;4973386;28;20205;-69
2023/01/21 08:08:06;;;;;;;8.30;5.38;;;1.20;99.90;;;;;;4972621;28;20223;-68
2023/01/21 08:10:35;;;;;;;15.60;3.22;;;1.20;99.90;;;;;;4973135;28;20260;-69
2023/01/21 08:13:02;;;;;;;3.67;3.30;;;1.20;99.90;;;;;;4969769;28;20222;-70
2023/01/21 08:15:29;;;;;;;7.88;3.50;;;1.20;99.90;;;;;;4971966;28;20220;-69
2023/01/21 08:17:56;;;;;;;2.53;2.38;;;1.20;99.90;;;;;;4972918;28;20216;-69
2023/01/21 08:20:23;;;;;;;4.10;3.25;;;1.30;99.90;;;;;;4972325;28;20553;-69
2023/01/21 08:22:49;;;;;;;11.35;7.65;;;1.30;99.90;;;;;;4972310;28;20692;-69
2023/01/21 08:25:16;;;;;;;6.65;6.20;;;1.30;99.90;;;;;;4972235;28;20207;-67
2023/01/21 08:27:44;;;;;;;2.83;1.58;;;1.30;99.90;;;;;;4971355;28;20216;-69
2023/01/21 08:30:11;;;;;;;5.80;5.68;;;1.30;99.90;;;;;;4970612;28;20261;-68
2023/01/21 08:32:38;;;;;;;4.55;4.18;;;1.30;99.90;;;;;;4972929;28;20697;-67
2023/01/21 08:35:06;;;;;;;10.25;5.95;;;1.30;99.90;;;;;;4970847;28;20608;-69
2023/01/21 08:37:33;;;;;;;22.25;7.60;;;1.30;99.90;;;;;;4971903;28;20204;-69
2023/01/21 08:40:00;;;;;;;11.00;5.88;;;1.30;99.90;;;;;;4971602;28;20200;-68
2023/01/21 08:42:27;;;;;;;6.63;5.60;;;1.30;99.90;;;;;;4971560;28;20227;-68
2023/01/21 08:44:55;;;;;;;4.88;2.83;;;1.30;99.90;;;;;;4968976;28;20763;-69
2023/01/21 08:47:21;;;;;;;19.98;3.97;;;1.30;99.90;;;;;;4971729;28;20205;-68
2023/01/21 08:49:48;;;;;;;5.15;3.83;;;1.40;99.90;;;;;;4971119;28;20239;-69
2023/01/21 08:52:15;;;;;;;11.82;5.63;;;1.40;99.90;;;;;;4971142;28;20232;-66
2023/01/21 08:54:42;;;;;;;5.60;5.00;;;1.40;99.90;;;;;;4970429;28;20220;-69
2023/01/21 08:57:09;;;;;;;5.28;3.00;;;1.40;99.90;;;;;;4969625;28;20221;-67
2023/01/21 08:59:36;;;;;;;6.05;3.55;;;1.50;99.90;;;;;;4970341;28;20961;-69
2023/01/21 09:02:04;;;;;;;10.88;4.07;;;1.50;99.90;;;;;;4972625;28;20235;-69
2023/01/21 09:04:30;;;;;;;5.63;4.53;;;1.50;99.90;;;;;;4971701;28;20219;-69
2023/01/21 09:06:57;;;;;;;13.63;5.30;;;1.50;99.90;;;;;;4971854;28;20236;-68
2023/01/21 09:09:24;;;;;;;11.68;4.88;;;1.60;99.90;;;;;;4970585;28;20653;-69
2023/01/21 09:11:51;;;;;;;19.27;5.85;;;1.60;99.90;;;;;;4969945;28;20239;-68
2023/01/21 09:14:18;;;;;;;8.75;3.88;;;1.60;99.90;;;;;;4969932;28;20220;-68
2023/01/21 09:16:47;;;;;;;8.57;5.07;;;1.60;99.90;;;;;;4969738;28;20644;-68
2023/01/21 09:19:15;;;;;;;12.70;5.30;;;1.60;99.90;;;;;;4970064;28;20208;-68
2023/01/21 09:21:42;;;;;;;10.02;5.72;;;1.60;99.90;;;;;;4967737;28;20240;-68
2023/01/21 09:24:09;;;;;;;5.85;3.53;;;1.60;99.90;;;;;;4968819;28;20595;-69
2023/01/21 09:26:35;;;;;;;3.45;3.25;;;1.60;99.90;;;;;;4970572;28;20592;-69
2023/01/21 09:29:02;;;;;;;6.15;4.10;;;1.70;99.90;;;;;;4968773;28;20205;-68
2023/01/21 09:31:30;;;;;;;11.15;6.07;;;1.70;99.90;;;;;;4971487;28;20654;-69
2023/01/21 09:33:58;;;;;;;8.98;5.03;;;1.80;99.90;;;;;;4975301;28;20207;-69
2023/01/21 09:36:28;;;;;;;11.15;5.78;;;1.80;99.90;;;;;;4966868;28;20205;-68
2023/01/21 09:38:55;;;;;;;4.45;4.20;;;1.90;99.90;;;;;;4970438;28;20211;-69
2023/01/21 09:41:26;;;;;;;17.05;8.15;;;1.90;99.90;;;;;;4966066;28;20220;-69
2023/01/21 09:44:00;;;;;;;11.20;2.80;;;1.90;99.90;;;;;;4968243;28;20216;-69
2023/01/21 09:46:34;;;;;;;3.28;3.03;;;1.90;99.90;;;;;;4966622;28;20220;-69
2023/01/21 09:49:03;;;;;;;15.80;8.25;;;2.00;99.90;;;;;;4965523;28;20659;-69
2023/01/21 09:51:44;;;;;;;11.43;4.90;;;2.00;99.90;;;;;;4969612;28;20331;-69
2023/01/21 09:54:19;;;;;;;9.48;3.88;;;2.00;99.90;;;;;;4967822;28;20220;-69
2023/01/21 09:57:05;;;;;;;13.48;5.53;;;1.90;99.90;;;;;;4966827;28;20207;-69
2023/01/21 09:59:46;;;;;;;4.13;3.70;;;2.00;99.90;;;;;;4965553;28;20204;-69
2023/01/21 10:02:24;;;;;;;14.68;3.28;;;2.00;99.90;;;;;;4964290;28;20618;-70
2023/01/21 10:05:05;;;;;;;8.63;7.57;;;2.10;99.90;;;;;;4969689;28;20216;-69
2023/01/21 10:07:38;;;;;;;14.60;7.68;;;2.20;99.90;;;;;;4964909;28;20205;-69
2023/01/21 10:10:13;;;;;;;10.85;6.80;;;2.30;99.90;;;;;;4969935;28;20247;-69
2023/01/21 10:12:59;;;;;;;11.55;9.32;;;2.30;99.90;;;;;;4969291;28;20205;-69
2023/01/21 10:15:36;;;;;;;5.63;4.57;;;2.30;99.90;;;;;;4969374;28;20213;-68
2023/01/21 10:18:07;;;;;;;8.80;6.43;;;2.30;99.90;;;;;;4971796;28;20212;-67
2023/01/21 10:20:41;;;;;;;6.90;5.05;;;2.40;99.90;;;;;;4970870;28;20236;-69
2023/01/21 10:23:16;;;;;;;16.67;6.20;;;2.40;99.90;;;;;;4970478;28;20208;-67
2023/01/21 10:25:46;;;;;;;5.65;5.15;;;2.50;99.90;;;;;;4973647;28;20211;-67
2023/01/21 10:28:20;;;;;;;13.75;7.85;;;2.50;99.90;;;;;;4973796;28;20312;-67
2023/01/21 10:30:51;;;;;;;13.65;8.43;;;2.50;99.90;;;;;;4972129;28;20244;-68
2023/01/21 10:33:20;;;;;;;16.90;5.45;;;2.60;99.90;;;;;;4972283;28;20197;-68
2023/01/21 10:36:07;;;;;;;12.90;10.07;;;2.70;99.90;;;;;;4972656;28;20656;-68
2023/01/21 10:38:42;;;;;;;11.18;6.30;;;2.70;99.90;;;;;;4952295;28;20201;-68
2023/01/21 10:41:28;;;;;;;11.60;6.25;;;2.80;99.90;;;;;;4969177;28;20308;-68
2023/01/21 10:44:02;;;;;;;12.05;6.13;;;2.80;99.90;;;;;;4965135;28;20570;-68
2023/01/21 10:46:37;;;;;;;19.08;11.88;;;2.90;99.90;;;;;;4971710;28;20204;-68
2023/01/21 10:49:16;;;;;;;8.05;7.30;;;2.90;99.90;;;;;;4967819;28;20214;-67
2023/01/21 10:51:47;;;;;;;12.32;7.78;;;2.90;99.90;;;;;;4974130;28;20561;-67
2023/01/21 10:54:22;;;;;;;8.35;5.85;;;3.00;99.90;;;;;;4973451;28;20235;-66
2023/01/21 10:56:55;;;;;;;8.02;3.53;;;3.10;99.90;;;;;;4971764;28;20208;-68
2023/01/21 10:59:27;;;;;;;23.42;7.45;;;3.20;99.90;;;;;;4973343;28;20209;-67
2023/01/21 11:02:04;;;;;;;10.90;5.28;;;3.10;99.90;;;;;;4972922;28;20228;-68
2023/01/21 11:04:31;;;;;;;6.75;4.72;;;3.10;99.90;;;;;;4972465;28;20314;-68
2023/01/21 11:07:01;;;;;;;19.85;8.82;;;3.20;99.90;;;;;;4973979;28;20290;-66
2023/01/21 11:09:34;;;;;;;7.47;6.78;;;3.10;99.90;;;;;;4973373;28;20215;-68
2023/01/21 11:12:02;;;;;;;12.23;7.20;;;3.10;99.90;;;;;;4969015;28;20662;-67
2023/01/21 11:14:29;;;;;;;6.20;4.22;;;3.20;99.90;;;;;;4969368;28;20212;-67
2023/01/21 11:16:56;;;;;;;14.77;6.05;;;3.20;99.90;;;;;;4961382;28;20220;-68
2023/01/21 11:19:25;;;;;;;8.18;4.00;;;3.30;99.90;;;;;;4968296;28;20213;-68
2023/01/21 11:22:01;;;;;;;7.88;6.80;;;3.30;99.90;;;;;;4964542;28;20221;-68
2023/01/21 11:24:31;;;;;;;12.23;7.45;;;3.30;99.90;;;;;;4969925;28;20216;-68
2023/01/21 11:26:59;;;;;;;8.40;5.95;;;3.30;99.90;;;;;;4969481;28;20678;-68
2023/01/21 11:29:30;;;;;;;14.85;6.03;;;3.40;99.90;;;;;;4966012;28;20201;-68
2023/01/21 11:32:02;;;;;;;6.25;5.75;;;3.40;99.90;;;;;;4967559;28;20327;-68
2023/01/21 11:34:29;;;;;;;8.13;4.50;;;3.40;99.90;;;;;;4970150;28;20629;-68
2023/01/21 11:37:01;;;;;;;12.27;7.18;;;3.50;99.90;;;;;;4964204;28;20213;-67
2023/01/21 11:39:32;;;;;;;18.02;5.32;;;3.50;99.90;;;;;;4966394;28;20232;-67
2023/01/21 11:42:07;;;;;;;16.42;9.85;;;3.50;99.90;;;;;;4964652;28;20220;-68
2023/01/21 11:44:34;;;;;;;8.85;5.45;;;3.60;99.90;;;;;;4971949;28;20204;-68
2023/01/21 11:47:01;;;;;;;11.50;9.02;;;3.60;99.90;;;;;;4961826;28;20228;-68
2023/01/21 11:49:31;;;;;;;20.10;7.50;;;3.60;99.90;;;;;;4965766;28;20303;-68
2023/01/21 11:52:18;;;;;;;15.88;8.15;;;3.60;99.90;;;;;;4965231;28;20646;-67
2023/01/21 11:54:47;;;;;;;9.32;7.20;;;3.70;99.90;;;;;;4971945;28;20224;-68
2023/01/21 11:57:29;;;;;;;9.85;6.32;;;3.70;99.90;;;;;;4969776;28;20216;-68
2023/01/21 12:00:00;;;;;;;11.88;4.10;;;3.70;99.90;;;;;;4969630;28;20658;-68
2023/01/21 12:02:30;;;;;;;6.90;3.33;;;3.60;99.90;;;;;;4968251;28;20248;-66
2023/01/21 12:05:01;;;;;;;9.57;3.58;;;3.70;99.90;;;;;;4967936;28;20220;-67
2023/01/21 12:07:31;;;;;;;15.30;7.70;;;3.80;99.90;;;;;;4969939;28;20320;-68
2023/01/21 12:10:06;;;;;;;9.10;5.90;;;3.80;99.90;;;;;;4972000;28;20213;-68
2023/01/21 12:12:47;;;;;;;12.25;6.50;;;3.90;99.90;;;;;;4971013;28;20233;-68
2023/01/21 12:15:32;;;;;;;11.70;5.07;;;3.90;99.90;;;;;;4971781;28;20209;-68
2023/01/21 12:18:16;;;;;;;4.65;4.00;;;4.00;99.90;;;;;;4971064;28;20206;-68
2023/01/21 12:20:49;;;;;;;5.88;3.10;;;4.00;99.90;;;;;;4970337;28;20237;-67
2023/01/21 12:23:31;;;;;;;4.78;2.70;;;4.00;99.90;;;;;;4972624;28;20204;-68
2023/01/21 12:26:04;;;;;;;8.70;5.05;;;4.10;99.90;;;;;;4965584;28;20217;-68
2023/01/21 12:28:48;;;;;;;8.75;4.60;;;4.00;99.90;;;;;;4968528;28;20300;-68
2023/01/21 12:31:23;;;;;;;5.88;4.10;;;4.10;99.90;;;;;;4969290;28;20231;-68
2023/01/21 12:33:54;;;;;;;4.70;3.67;;;4.10;99.90;;;;;;4968717;28;20200;-68
2023/01/21 12:36:26;;;;;;;17.17;5.20;;;4.10;99.90;;;;;;4970901;28;20205;-68
2023/01/21 12:39:09;;;;;;;6.55;5.10;;;4.20;99.90;;;;;;4964377;28;20293;-68
2023/01/21 12:41:40;;;;;;;6.60;5.93;;;4.20;99.90;;;;;;4968375;28;20575;-68
2023/01/21 12:44:18;;;;;;;6.20;5.70;;;4.30;99.90;;;;;;4971993;28;20575;-67
2023/01/21 12:46:49;;;;;;;4.28;3.33;;;4.30;99.90;;;;;;4965929;28;20269;-68
2023/01/21 12:49:21;;;;;;;5.53;2.80;;;4.30;99.90;;;;;;4970787;28;20229;-68
2023/01/21 12:51:54;;;;;;;5.22;4.60;;;4.30;99.90;;;;;;4966823;28;20233;-67
2023/01/21 12:54:29;;;;;;;2.42;2.00;;;4.30;99.90;;;;;;4970243;28;20226;-69
2023/01/21 12:57:04;;;;;;;3.88;3.40;;;4.30;99.90;;;;;;4967029;28;20522;-67
2023/01/21 12:59:37;;;;;;;5.43;4.05;;;4.30;99.90;;;;;;4969849;28;20533;-68
2023/01/21 13:02:15;;;;;;;8.35;5.38;;;4.30;99.90;;;;;;4970876;28;20330;-68
2023/01/21 13:04:51;;;;;;;3.40;3.08;;;4.40;99.90;;;;;;4964193;28;20209;-68
2023/01/21 13:07:30;;;;;;;5.20;4.75;;;4.40;99.90;;;;;;4969665;28;20212;-68
2023/01/21 13:10:01;;;;;;;5.85;2.70;;;4.40;99.90;;;;;;4969721;28;20224;-68
2023/01/21 13:12:32;;;;;;;4.85;2.97;;;4.40;99.90;;;;;;4969029;28;20236;-67
2023/01/21 13:15:03;;;;;;;6.63;6.43;;;4.40;99.90;;;;;;4970756;28;20224;-68
2023/01/21 13:17:33;;;;;;;10.40;5.53;;;4.40;99.90;;;;;;4967035;28;20209;-67
2023/01/21 13:20:00;;;;;;;3.03;2.50;;;4.40;99.90;;;;;;4970783;28;20220;-67
2023/01/21 13:22:36;;;;;;;13.88;4.72;;;4.40;99.90;;;;;;4967964;28;20229;-67
2023/01/21 13:25:21;;;;;;;6.30;3.75;;;4.40;99.90;;;;;;4971257;28;20212;-66
2023/01/21 13:27:57;;;;;;;10.52;3.22;;;4.40;99.90;;;;;;4970447;28;20227;-67
2023/01/21 13:30:30;;;;;;;7.75;2.88;;;4.40;99.90;;;;;;4969495;28;20221;-66
2023/01/21 13:33:15;;;;;;;5.68;5.07;;;4.40;99.90;;;;;;4971309;28;20208;-66
2023/01/21 13:35:50;;;;;;;6.50;4.57;;;4.40;99.90;;;;;;4965560;28;20216;-67
2023/01/21 13:38:24;;;;;;;9.00;4.18;;;4.30;99.90;;;;;;4972299;28;20222;-67
2023/01/21 13:40:58;;;;;;;8.35;5.35;;;4.40;99.90;;;;;;4971816;28;20225;-67
2023/01/21 13:43:53;;;;;;;5.05;4.10;;;4.40;99.90;;;;;;4974064;28;20214;-66
2023/01/21 13:46:32;;;;;;;8.85;5.30;;;4.40;99.90;;;;;;4971080;28;20220;-67
2023/01/21 13:49:16;;;;;;;9.00;4.57;;;4.40;99.90;;;;;;4972308;28;20633;-67
2023/01/21 13:51:54;;;;;;;3.95;3.53;;;4.40;99.90;;;;;;4963759;28;20748;-67
2023/01/21 13:54:54;;;;;;;5.60;4.93;;;4.40;99.90;;;;;;4969043;28;20205;-67
2023/01/21 13:57:40;;;;;;;7.47;3.22;;;4.40;99.90;;;;;;4967900;28;20228;-68
2023/01/21 14:00:14;;;;;;;5.40;3.13;;;4.30;99.90;;;;;;4970106;28;20208;-68
2023/01/21 14:02:47;;;;;;;2.97;2.75;;;4.30;99.90;;;;;;4961931;28;20201;-67
2023/01/21 14:05:20;;;;;;;6.32;3.53;;;4.30;99.90;;;;;;4967911;28;20209;-68
2023/01/21 14:07:52;;;;;;;3.08;2.33;;;4.30;99.90;;;;;;4968797;28;20209;-69
2023/01/21 14:10:27;;;;;;;4.82;2.80;;;4.30;99.90;;;;;;4969894;28;20311;-68
2023/01/21 14:13:35;;;;;;;9.60;6.07;;;4.30;99.90;;;;;;4964524;28;20673;-68
2023/01/21 14:16:20;;;;;;;5.05;4.75;;;4.30;99.90;;;;;;4965364;28;20220;-69
2023/01/21 14:19:04;;;;;;;4.68;4.28;;;4.30;99.90;;;;;;4966302;28;20224;-69
2023/01/21 14:21:54;;;;;;;6.82;3.42;;;4.30;99.90;;;;;;4966162;28;20229;-68
2023/01/21 14:25:02;;;;;;;6.90;5.75;;;4.30;99.90;;;;;;4971784;28;20232;-69
2023/01/21 14:27:37;;;;;;;4.63;4.25;;;4.20;99.90;;;;;;4913410;29;20218;-68
2023/01/21 14:30:09;;;;;;;5.25;4.75;;;4.20;99.90;;;;;;4913468;29;20217;-68
2023/01/21 14:32:43;;;;;;;1.30;1.30;;;4.20;99.90;;;;;;4947616;28;20246;-68
2023/01/21 14:35:19;;;;;;;5.53;4.68;;;4.20;99.90;;;;;;4973075;28;20213;-67
2023/01/21 14:37:50;;;;;;;3.30;3.05;;;4.20;99.90;;;;;;4974522;28;20211;-67
2023/01/21 14:40:22;;;;;;;4.25;3.95;;;4.10;99.90;;;;;;4971740;28;20201;-68
2023/01/21 14:42:50;;;;;;;8.65;5.32;;;4.10;99.90;;;;;;4971680;28;20224;-68
2023/01/21 14:45:20;;;;;;;3.97;2.60;;;4.10;99.90;;;;;;4973247;28;20205;-68
2023/01/21 14:47:50;;;;;;;6.55;4.40;;;4.10;99.90;;;;;;4974091;28;20225;-68
2023/01/21 14:50:43;;;;;;;4.93;4.03;;;4.10;99.90;;;;;;4971879;28;20219;-68
2023/01/21 14:53:11;;;;;;;9.05;5.85;;;4.10;99.90;;;;;;4969942;28;20281;-69
2023/01/21 14:55:38;;;;;;;5.97;4.65;;;4.10;99.90;;;;;;4973276;28;20235;-68
2023/01/21 14:58:05;;;;;;;4.72;2.22;;;4.10;99.90;;;;;;4973340;28;20212;-68
2023/01/21 15:00:33;;;;;;;4.60;3.53;;;4.10;99.90;;;;;;4973754;28;20213;-68
2023/01/21 15:03:15;;;;;;;7.97;4.28;;;4.10;99.90;;;;;;4972526;28;20230;-67
2023/01/21 15:05:44;;;;;;;4.60;4.07;;;4.00;99.90;;;;;;4973845;28;20224;-68
2023/01/21 15:08:18;;;;;;;6.28;4.40;;;4.00;99.90;;;;;;4967886;28;20205;-68
2023/01/21 15:10:51;;;;;;;4.18;3.78;;;4.00;99.90;;;;;;4971658;28;20601;-68
2023/01/21 15:13:28;;;;;;;5.35;4.22;;;3.90;99.90;;;;;;4971131;28;20208;-68
2023/01/21 15:16:14;;;;;;;1.83;1.77;;;4.00;99.90;;;;;;4969173;28;20200;-68
2023/01/21 15:18:47;;;;;;;2.75;1.38;;;4.00;99.90;;;;;;4967967;28;20215;-67
2023/01/21 15:21:34;;;;;;;5.88;2.58;;;3.90;99.90;;;;;;4971563;28;20222;-66
2023/01/21 15:24:23;;;;;;;1.48;1.38;;;3.90;99.90;;;;;;4965083;28;20212;-66
2023/01/21 15:27:16;;;;;;;1.52;1.52;;;3.90;99.90;;;;;;4969723;28;20709;-68
2023/01/21 15:29:44;;;;;;;0.60;0.60;;;3.90;99.90;;;;;;4963984;28;20793;-67
2023/01/21 15:32:28;;;;;;;4.22;2.00;;;3.90;99.90;;;;;;4970514;28;20338;-67
2023/01/21 15:34:59;;;;;;;1.25;0.55;;;3.80;99.90;;;;;;4972343;28;20219;-67
2023/01/21 15:37:28;;;;;;;4.75;0.90;;;3.80;99.90;;;;;;4965246;28;20209;-67
2023/01/21 15:39:59;;;;;;;1.55;1.45;;;3.80;99.90;;;;;;4964970;28;20216;-67
2023/01/21 15:42:35;;;;;;;7.20;2.50;;;3.80;99.90;;;;;;4965407;28;20662;-67
2023/01/21 15:45:18;;;;;;;1.02;1.02;;;3.70;99.90;;;;;;4969797;28;20654;-68
2023/01/21 15:48:09;;;;;;;1.38;1.27;;;3.70;99.90;;;;;;4972600;28;20716;-68
2023/01/21 15:50:45;;;;;;;0.75;0.50;;;3.70;99.90;;;;;;4974032;28;20235;-67
2023/01/21 15:53:37;;;;;;;0.82;0.80;;;3.60;99.90;;;;;;4970781;28;20216;-67
2023/01/21 15:56:31;;;;;;;11.45;1.90;;;3.60;99.90;;;;;;4969858;28;20660;-67
2023/01/21 15:59:09;;;;;;;1.50;1.20;;;3.60;99.90;;;;;;4964649;28;20217;-67
2023/01/21 16:01:37;;;;;;;28.00;2.30;;;3.50;99.90;;;;;;4971095;28;20247;-67
2023/01/21 16:04:18;;;;;;;1.30;1.20;;;3.50;99.90;;;;;;4967387;28;20205;-67
2023/01/21 16:06:57;;;;;;;2.95;2.28;;;3.40;99.90;;;;;;4972493;28;20211;-66
2023/01/21 16:09:33;;;;;;;1.60;1.60;;;3.30;99.90;;;;;;4971373;28;20205;-68
2023/01/21 16:12:12;;;;;;;2.05;1.95;;;3.30;99.90;;;;;;4970628;28;20251;-66
2023/01/21 16:14:53;;;;;;;4.32;1.70;;;3.30;99.90;;;;;;4970782;28;20216;-66
2023/01/21 16:17:29;;;;;;;0.40;0.40;;;3.30;99.90;;;;;;4970767;28;20209;-66
2023/01/21 16:19:59;;;;;;;4.75;4.40;;;3.20;99.90;;;;;;4968745;28;20207;-66
2023/01/21 16:22:30;;;;;;;2.58;1.88;;;3.20;99.90;;;;;;4967164;28;20728;-66
2023/01/21 16:25:01;;;;;;;3.15;2.90;;;3.10;99.90;;;;;;4972874;28;20215;-66
2023/01/21 16:27:30;;;;;;;1.60;1.60;;;3.10;99.90;;;;;;4967122;28;20232;-66
2023/01/21 16:29:57;;;;;;;1.13;1.13;;;3.10;99.90;;;;;;4970735;28;20237;-67
2023/01/21 16:32:25;;;;;;;1.92;1.60;;;3.00;99.90;;;;;;4970619;28;20260;-66
2023/01/21 16:34:52;;;;;;;3.03;2.05;;;3.00;99.90;;;;;;4971486;28;20547;-67
2023/01/21 16:37:21;;;;;;;2.45;1.92;;;3.00;99.90;;;;;;4971619;28;20219;-67
2023/01/21 16:39:53;;;;;;;2.50;2.25;;;3.00;99.90;;;;;;4967456;28;20305;-67
2023/01/21 16:42:24;;;;;;;2.05;1.38;;;2.90;99.90;;;;;;4970749;28;20224;-68
2023/01/21 16:44:51;;;;;;;1.58;1.48;;;2.90;99.90;;;;;;4970748;28;20209;-66
2023/01/21 16:47:23;;;;;;;2.70;1.65;;;2.90;99.90;;;;;;4968737;28;20312;-67
2023/01/21 16:49:50;;;;;;;1.35;1.25;;;2.90;99.90;;;;;;4972090;28;20306;-68
2023/01/21 16:52:18;;;;;;;0.75;0.63;;;2.80;99.90;;;;;;4970701;28;20613;-68
2023/01/21 16:54:50;;;;;;;1.42;1.35;;;2.80;99.90;;;;;;4968558;28;20260;-67
2023/01/21 16:57:24;;;;;;;2.65;1.30;;;2.80;99.90;;;;;;4968413;28;20216;-67
2023/01/21 16:59:54;;;;;;;2.35;1.50;;;2.80;99.90;;;;;;4968381;28;20224;-67
2023/01/21 17:02:25;;;;;;;1.15;1.15;;;2.90;99.90;;;;;;4970775;28;20647;-68
2023/01/21 17:04:55;;;;;;;4.38;3.65;;;2.90;99.90;;;;;;4965502;28;20252;-68
2023/01/21 17:07:25;;;;;;;3.78;2.40;;;2.90;99.90;;;;;;4968096;28;20201;-68
2023/01/21 17:10:00;;;;;;;2.17;2.08;;;2.90;99.90;;;;;;4971804;28;20213;-67
2023/01/21 17:12:29;;;;;;;2.92;2.92;;;2.90;99.90;;;;;;4966710;28;20228;-67
2023/01/21 17:15:00;;;;;;;3.28;2.25;;;2.80;99.90;;;;;;4971026;28;20212;-68
2023/01/21 17:17:31;;;;;;;3.53;2.45;;;2.80;99.90;;;;;;4969572;28;20219;-69
2023/01/21 17:19:58;;;;;;;2.28;2.00;;;2.80;99.90;;;;;;4968841;28;20295;-69
2023/01/21 17:22:28;;;;;;;2.78;2.65;;;2.80;99.90;;;;;;4968873;28;20623;-68
2023/01/21 17:25:02;;;;;;;2.42;2.22;;;2.80;99.90;;;;;;4964933;28;20209;-68
2023/01/21 17:27:30;;;;;;;3.92;2.70;;;2.80;99.90;;;;;;4971365;28;20236;-68
2023/01/21 17:30:27;;;;;;;2.38;2.28;;;2.80;99.90;;;;;;4971258;28;20212;-68
2023/01/21 17:32:55;;;;;;;2.63;2.42;;;2.80;99.90;;;;;;4962356;28;20236;-68
2023/01/21 17:35:23;;;;;;;2.85;2.75;;;2.90;99.90;;;;;;4966689;28;20204;-68
2023/01/21 17:37:55;;;;;;;2.25;2.13;;;2.80;99.90;;;;;;4970894;28;20223;-68
2023/01/21 17:40:30;;;;;;;2.63;2.42;;;2.80;99.90;;;;;;4971909;28;20236;-67
2023/01/21 17:42:58;;;;;;;3.08;1.80;;;2.80;99.90;;;;;;4968810;28;20681;-69
2023/01/21 17:45:30;;;;;;;4.47;3.40;;;2.80;99.90;;;;;;4970131;28;20236;-69
2023/01/21 17:47:59;;;;;;;1.90;1.90;;;2.70;99.90;;;;;;4967024;28;20205;-70
2023/01/21 17:50:28;;;;;;;3.20;3.05;;;2.70;99.90;;;;;;4971551;28;20204;-69
2023/01/21 17:52:58;;;;;;;2.00;2.00;;;2.60;99.90;;;;;;4969795;28;20231;-70
2023/01/21 17:55:32;;;;;;;2.67;2.58;;;2.60;99.90;;;;;;4969018;28;20215;-66
2023/01/21 17:58:03;;;;;;;1.17;0.77;;;2.60;99.90;;;;;;4968639;28;20220;-66
2023/01/21 18:00:41;;;;;;;4.85;3.65;;;2.50;99.90;;;;;;4964285;28;20209;-70
2023/01/21 18:03:09;;;;;;;2.00;1.80;;;2.50;99.90;;;;;;4969620;28;20212;-68
2023/01/21 18:05:36;;;;;;;4.35;2.83;;;2.60;99.90;;;;;;4964852;28;20208;-66
2023/01/21 18:08:04;;;;;;;1.98;1.88;;;2.60;99.90;;;;;;4969876;28;20205;-67
2023/01/21 18:10:33;;;;;;;2.63;2.05;;;2.60;99.90;;;;;;4969677;28;20684;-68
2023/01/21 18:12:59;;;;;;;4.97;2.92;;;2.60;99.90;;;;;;4969909;28;20231;-67
2023/01/21 18:15:26;;;;;;;2.10;2.00;;;2.60;99.90;;;;;;4968000;28;20246;-69
2023/01/21 18:17:55;;;;;;;7.55;3.00;;;2.60;99.90;;;;;;4966232;28;20220;-67
2023/01/21 18:20:24;;;;;;;4.22;3.22;;;2.60;99.90;;;;;;4968411;28;20232;-69